Vershire, Vermont
Current Conditions -  °F | °C
As of 10:51 PM on Wednesday 22 Oct 2014 (Local Time) from KMPV Reporting Station
Overcast Overcast  
Wind Chill: 45°   Ceiling: 1900
Heat Index: 47°   Visibility: 10mi
Dew Point: 41°   Wind: 5mph
Humidity: 80%   Direction: 360°N
Pressure: 30.08"   Gusts: NA
Location:  43.97°N, 72.32°W
Report Text: KMPV 230251Z AUTO 36004KT 10SM OVC019 08/05 A3008 RMK AO2 SLP193 60000 T00830050 58015 $
Loading
Personal Weather Stations






























Interactive Weather Map
Tropical Storm Tracking
New forecast layout! Learn more

10-Day Weather Forecast

Advertisements
Track Severe Weather on mobile